Flip — WI7115 — position and weather

sailwx.info

Track history (hours):
 
Tides and Currents Weather Stations Pressure Air Temp Water Temp Dewpoint Dewpoint Depression Visibility Wind Speed Wind Dir Waves Ship Positions

Oceanographic research ship Flip (USA)

Detailed information on ship capabilities available from University of Delaware's Ocean Information Center.

Owner: REGENTS OF THE UNIVERSITY OF CALIFORNIA, OAKLAND, CA. More information available from US FCC via Universal Licensing System and Coast Guard Vessel Documentation Center.

Last reported at 2017-Oct-28 17:22 UTC. Time now 2017-Dec-18 09:17 UTC.
Position N 32°42' W 117°25'.
Warning: this ship's position is 50 days out of date.

Length 124 m; draft 14 m.

Type: Military. MMSI: 338040561.

Date/timePositionNaut miles runAvg speedWind from/ knotsBaromVisibWave heightAir tempDewpointWater temp
2017-Oct-28 17:22N 32°42' W 117°25'3 8.2
2017-Oct-28 17:00N 32°44' W 117°28'7 8.3
2017-Oct-28 16:08N 32°48' W 117°35'1 8.0
2017-Oct-28 16:00N 32°48' W 117°36'4 7.9
2017-Oct-28 15:30N 32°50' W 117°40'7 8.0
2017-Oct-28 14:36N 32°54' W 117°47'1 8.2
2017-Oct-28 14:30N 32°55' W 117°48'4 7.9
2017-Oct-28 14:00N 32°57' W 117°52'4 8.0
2017-Oct-28 13:30N 32°59' W 117°56'4 8.0
2017-Oct-28 13:00N 33°01' W 117°60'15 8.1
2017-Oct-28 11:10N 33°09' W 118°15'1 7.9
2017-Oct-28 11:00N 33°10' W 118°16'4 8.1
2017-Oct-28 10:30N 33°12' W 118°20'4 8.2
2017-Oct-28 10:00N 33°15' W 118°24'4 8.2
2017-Oct-28 09:30N 33°17' W 118°28'7 8.2
2017-Oct-28 08:37N 33°21' W 118°35'1 8.0
2017-Oct-28 08:30N 33°22' W 118°36'4 8.0
2017-Oct-28 08:00N 33°24' W 118°40'4 8.1
2017-Oct-28 07:30N 33°27' W 118°43'4 8.2
2017-Oct-28 06:59N 33°30' W 118°47'4 8.3
2017-Oct-28 06:30N 33°34' W 118°49'4 8.4
2017-Oct-28 06:00N 33°37' W 118°52'4 8.2
2017-Oct-28 05:30N 33°41' W 118°54'2 3.5
2017-Oct-28 05:00N 33°42' W 118°55'0 1.0
2017-Oct-28 04:30N 33°42' W 118°56'0 1.0
2017-Oct-28 04:00N 33°42' W 118°57'1 1.1
2017-Oct-28 03:30N 33°42' W 118°57'2 0.7
2017-Oct-28 00:28N 33°42' W 118°60'0 0.1
2017-Oct-27 23:49N 33°42' W 118°60'0 0.1
2017-Oct-27 23:25N 33°42' W 118°60'0 0.1
2017-Oct-27 22:58N 33°42' W 118°60'0 0.1
2017-Oct-27 22:19N 33°42' W 118°60'0 0.2
2017-Oct-27 21:58N 33°42' W 118°60'0 0.2
2017-Oct-27 21:25N 33°42' W 118°60'0 0.1
2017-Oct-27 16:46N 33°41' W 118°59'0 0.1
2017-Oct-27 14:54N 33°41' W 118°59'0 0.0
2017-Oct-27 14:30N 33°41' W 118°59'0 0.0
2017-Oct-27 13:18N 33°41' W 118°59'0 0.0
2017-Oct-27 12:54N 33°41' W 118°59'0 0.0
2017-Oct-27 12:30N 33°41' W 118°59'0 0.0
2017-Oct-27 11:48N 33°41' W 118°59'0 0.0
2017-Oct-27 10:33N 33°41' W 118°59'0 0.0
2017-Oct-27 10:09N 33°41' W 118°59'0 0.0
2017-Oct-27 08:54N 33°41' W 118°59'0 0.0
2017-Oct-27 05:57N 33°41' W 118°59'0 0.0
2017-Oct-27 05:15N 33°41' W 118°59'0 0.0
2017-Oct-27 04:54N 33°41' W 118°59'0 0.0
2017-Oct-27 03:30N 33°41' W 118°59'0 0.0
2017-Oct-26 23:23N 33°41' W 118°59'0 0.0
2017-Oct-26 21:56N 33°41' W 118°59'0 0.0
2017-Oct-26 20:02N 33°41' W 118°59'0 0.0
2017-Oct-26 15:26N 33°41' W 118°59'0 0.0
2017-Oct-26 13:44N 33°41' W 118°59'0 0.0
2017-Oct-26 12:17N 33°41' W 118°59'0 0.0
2017-Oct-26 11:44N 33°41' W 118°59'0 0.0
2017-Oct-26 09:50N 33°41' W 118°59'0 0.0
2017-Oct-26 09:23N 33°41' W 118°59'0 0.0
2017-Oct-26 08:56N 33°41' W 118°59'0 0.0
2017-Oct-26 08:29N 33°41' W 118°59'0 0.0
2017-Oct-26 07:20N 33°41' W 118°59'0 0.0
2017-Oct-26 03:38N 33°41' W 118°59'0 0.0
2017-Oct-26 03:17N 33°41' W 118°59'0 0.0
2017-Oct-26 02:53N 33°41' W 118°59'0 0.0
2017-Oct-26 02:26N 33°41' W 118°59'0 0.0
2017-Oct-26 01:59N 33°41' W 118°59'0 0.0
2017-Oct-26 01:26N 33°41' W 118°59'0 0.0
2017-Oct-25 23:56N 33°41' W 118°59'0 0.0
2017-Oct-25 23:29N 33°41' W 118°59'0 0.0
2017-Oct-25 22:59N 33°41' W 118°59'0 0.0
2017-Oct-25 22:26N 33°41' W 118°59'0 0.0
2017-Oct-25 21:56N 33°41' W 118°59'0 0.0
2017-Oct-25 21:29N 33°41' W 118°59'0 0.0
2017-Oct-25 20:59N 33°41' W 118°59'0 0.0
2017-Oct-25 20:26N 33°41' W 118°59'0 0.0
2017-Oct-25 19:59N 33°41' W 118°59'0 0.0
2017-Oct-25 19:29N 33°41' W 118°59'0 0.0
2017-Oct-25 18:56N 33°41' W 118°59'0 0.0
2017-Oct-25 18:26N 33°41' W 118°59'0 0.0
2017-Oct-25 17:59N 33°41' W 118°59'0 0.0
2017-Oct-25 17:26N 33°41' W 118°59'0 0.0
2017-Oct-25 16:59N 33°41' W 118°59'0 0.0
2017-Oct-25 16:26N 33°41' W 118°59'0 0.0
2017-Oct-25 15:59N 33°41' W 118°59'0 0.0
2017-Oct-25 15:29N 33°41' W 118°59'0 0.0
2017-Oct-25 14:59N 33°41' W 118°59'0 0.0
2017-Oct-25 14:29N 33°41' W 118°59'0 0.0
2017-Oct-25 13:59N 33°41' W 118°59'0 0.0
2017-Oct-25 13:29N 33°41' W 118°59'0 0.0
2017-Oct-25 12:59N 33°41' W 118°59'0 0.0
2017-Oct-25 12:29N 33°41' W 118°59'0 0.0
2017-Oct-25 11:59N 33°41' W 118°59'0 0.0
2017-Oct-25 11:29N 33°41' W 118°59'0 0.0
2017-Oct-25 10:35N 33°41' W 118°59'0 0.0
2017-Oct-25 10:29N 33°41' W 118°59'0 0.0
2017-Oct-25 09:01N 33°41' W 118°59'0 0.1
2017-Oct-25 08:59N 33°41' W 118°59'0 0.0
2017-Oct-25 08:25N 33°41' W 118°59'0 0.0
2017-Oct-25 07:59N 33°41' W 118°59'0 0.0
2017-Oct-25 07:29N 33°41' W 118°59'0 0.0
2017-Oct-25 06:53N 33°41' W 118°59'0 0.0
2017-Oct-25 06:29N 33°41' W 118°59'0 0.0
2017-Oct-25 05:59N 33°41' W 118°59'0 0.0
2017-Oct-25 05:28N 33°41' W 118°59'0 0.0
2017-Oct-25 04:58N 33°41' W 118°59'0 0.0
2017-Oct-25 04:29N 33°41' W 118°59'0 0.0
2017-Oct-25 03:47N 33°41' W 118°59'0 0.0
2017-Oct-25 03:29N 33°41' W 118°59'0 0.0
2017-Oct-25 02:58N 33°41' W 118°59'0 0.0
2017-Oct-25 02:29N 33°41' W 118°59'0 0.0
2017-Oct-25 01:55N 33°41' W 118°59'0 0.0
2017-Oct-25 01:22N 33°41' W 118°59'0 0.0
2017-Oct-25 00:58N 33°41' W 118°59'0 0.0
2017-Oct-25 00:28N 33°41' W 118°59'0 0.0
2017-Oct-24 23:50N 33°41' W 118°59'0 0.0
2017-Oct-24 23:28N 33°41' W 118°59'0 0.0
2017-Oct-24 22:49N 33°41' W 118°59'0 0.0
2017-Oct-24 22:29N 33°41' W 118°59'0 0.0
2017-Oct-24 21:52N 33°41' W 118°59'0 0.0
2017-Oct-24 21:28N 33°41' W 118°59'0 0.0
2017-Oct-24 20:59N 33°41' W 118°59'0 0.0
2017-Oct-24 20:29N 33°41' W 118°59'0 0.0
2017-Oct-24 19:59N 33°41' W 118°59'0 0.0
2017-Oct-24 19:23N 33°41' W 118°59'0 0.0
2017-Oct-24 18:59N 33°41' W 118°59'0 0.0
2017-Oct-24 18:17N 33°41' W 118°59'0 0.0
2017-Oct-24 17:55N 33°41' W 118°59'0 0.0
2017-Oct-24 16:58N 33°41' W 118°59'0 0.0
2017-Oct-24 16:25N 33°41' W 118°59'0 0.0
2017-Oct-24 15:55N 33°41' W 118°59'0 0.0
2017-Oct-24 15:25N 33°41' W 118°59'0 0.0
2017-Oct-24 14:56N 33°41' W 118°59'0 0.0
2017-Oct-24 14:25N 33°41' W 118°59'0 0.0
2017-Oct-24 13:52N 33°41' W 118°59'0 0.0
2017-Oct-24 13:26N 33°41' W 118°59'0 0.0
2017-Oct-24 12:55N 33°41' W 118°59'0 0.0
2017-Oct-24 12:25N 33°41' W 118°59'0 0.0
2017-Oct-24 11:55N 33°41' W 118°59'0 0.0
2017-Oct-24 11:25N 33°41' W 118°59'0 0.0
2017-Oct-24 08:58N 33°41' W 118°59'0 0.0
2017-Oct-24 08:28N 33°41' W 118°59'0 0.0
2017-Oct-24 06:52N 33°41' W 118°59'0 0.0
2017-Oct-24 06:25N 33°41' W 118°59'0 0.0
2017-Oct-24 04:04N 33°41' W 118°59'0 0.0
2017-Oct-24 03:55N 33°41' W 118°59'0 0.0
2017-Oct-24 03:25N 33°41' W 118°59'0 0.0
2017-Oct-24 02:58N 33°41' W 118°59'0 0.0
2017-Oct-23 23:16N 33°41' W 118°59'0 0.0
2017-Oct-23 22:58N 33°41' W 118°59'0 0.0
2017-Oct-23 17:01N 33°41' W 118°59'0 0.0
2017-Oct-23 16:31N 33°41' W 118°59'0 0.0
2017-Oct-23 16:22N 33°41' W 118°59'0 0.0
2017-Oct-23 15:46N 33°41' W 118°59'0 0.0
2017-Oct-23 15:07N 33°41' W 118°59'0 0.0
2017-Oct-23 14:52N 33°41' W 118°59'0 0.0
2017-Oct-23 14:28N 33°41' W 118°59'0 0.0
2017-Oct-23 13:58N 33°41' W 118°59'0 0.0
2017-Oct-23 12:52N 33°41' W 118°59'0 0.0
2017-Oct-23 12:07N 33°41' W 118°59'0 0.0
2017-Oct-23 11:58N 33°41' W 118°59'0 0.0
2017-Oct-23 11:04N 33°41' W 118°59'0 0.0
2017-Oct-23 10:58N 33°41' W 118°59'0 0.0
2017-Oct-23 10:25N 33°41' W 118°59'0 0.0
2017-Oct-23 09:16N 33°41' W 118°59'0 0.0
2017-Oct-23 05:58N 33°41' W 118°59'0 0.0
2017-Oct-23 05:19N 33°41' W 118°59'0 0.0
2017-Oct-23 04:49N 33°41' W 118°59'0 0.1
2017-Oct-23 04:25N 33°41' W 118°59'0 0.0
2017-Oct-22 20:19N 33°41' W 118°59'0 0.0
2017-Oct-22 19:55N 33°41' W 118°59'0 0.0
2017-Oct-22 19:28N 33°41' W 118°59'0 0.0
2017-Oct-22 18:58N 33°41' W 118°59'0 0.0
2017-Oct-22 18:28N 33°41' W 118°59'0 0.0
2017-Oct-22 17:52N 33°41' W 118°59'0 0.0
2017-Oct-22 17:22N 33°41' W 118°59'0 0.0
2017-Oct-22 16:58N 33°41' W 118°59'0 0.0
2017-Oct-22 15:46N 33°41' W 118°59'0 0.1
2017-Oct-22 15:22N 33°41' W 118°59'0 0.0
2017-Oct-22 14:58N 33°41' W 118°59'0 0.0
2017-Oct-22 14:25N 33°41' W 118°59'0 0.0
2017-Oct-22 13:58N 33°41' W 118°59'0 0.0
2017-Oct-22 13:25N 33°41' W 118°59'0 0.0
2017-Oct-22 12:46N 33°41' W 118°59'0 0.0
2017-Oct-22 12:28N 33°41' W 118°59'0 0.0
2017-Oct-22 11:58N 33°41' W 118°59'0 0.0
2017-Oct-22 07:46N 33°41' W 118°59'0 0.0
2017-Oct-22 04:04N 33°41' W 118°59'0 0.1
2017-Oct-22 03:43N 33°41' W 118°59'0 0.0
2017-Oct-21 23:16N 33°41' W 118°59'0 0.0
2017-Oct-21 22:58N 33°41' W 118°59'0 0.0
2017-Oct-21 22:22N 33°41' W 118°59'0 0.0
2017-Oct-21 21:58N 33°41' W 118°59'0 0.0
2017-Oct-21 21:28N 33°41' W 118°59'0 0.0
2017-Oct-21 20:58N 33°41' W 118°59'0 0.0
2017-Oct-21 20:25N 33°41' W 118°59'0 0.0
2017-Oct-21 19:58N 33°41' W 118°59'0 0.1
2017-Oct-21 19:28N 33°41' W 118°59'0 0.0
2017-Oct-21 12:31N 33°41' W 118°59'0 0.0
2017-Oct-21 12:19N 33°41' W 118°59'0 0.0
2017-Oct-21 11:37N 33°41' W 118°59'0 0.0
2017-Oct-21 11:22N 33°41' W 118°59'0 0.0
2017-Oct-21 09:40N 33°41' W 118°59'0 0.0
2017-Oct-21 09:28N 33°41' W 118°59'0 0.0
2017-Oct-21 08:55N 33°41' W 118°59'0 0.0
2017-Oct-21 08:19N 33°41' W 118°59'0 0.0
2017-Oct-21 05:19N 33°41' W 118°59'0 0.0
2017-Oct-21 04:37N 33°41' W 118°59'0 0.0
2017-Oct-21 04:16N 33°41' W 118°59'0 0.0
2017-Oct-21 03:58N 33°41' W 118°59'0 0.0
2017-Oct-21 03:22N 33°41' W 118°59'0 0.0
2017-Oct-21 02:58N 33°41' W 118°59'0 0.0
2017-Oct-21 01:52N 33°41' W 118°59'0 0.1
2017-Oct-21 01:28N 33°41' W 118°59'0 0.0
2017-Oct-21 00:34N 33°41' W 118°59'0 0.0
2017-Oct-21 00:04N 33°41' W 118°59'0 0.1
2017-Oct-20 23:55N 33°41' W 118°59'0 0.0
2017-Oct-20 23:25N 33°41' W 118°59'0 0.0
2017-Oct-20 22:52N 33°41' W 118°59'0 0.0
2017-Oct-20 22:28N 33°41' W 118°59'0 0.0
2017-Oct-20 21:58N 33°41' W 118°59'0 0.0
2017-Oct-20 21:28N 33°41' W 118°59'0 0.0
2017-Oct-20 20:58N 33°41' W 118°59'0 0.0
2017-Oct-20 15:40N 33°41' W 118°59'0 0.0
2017-Oct-20 15:28N 33°41' W 118°59'0 0.0
2017-Oct-20 14:55N 33°41' W 118°59'0 0.1
2017-Oct-20 14:19N 33°41' W 118°59'0 0.0
2017-Oct-20 13:28N 33°41' W 118°59'0 0.0
2017-Oct-20 12:55N 33°41' W 118°59'0 0.0
2017-Oct-20 12:29N 33°41' W 118°59'0 0.0
2017-Oct-20 11:59N 33°41' W 118°59'0 0.0
2017-Oct-20 11:29N 33°41' W 118°59'0 0.0
2017-Oct-20 10:59N 33°41' W 118°59'0 0.0
2017-Oct-20 10:29N 33°41' W 118°59'0 0.0
2017-Oct-20 09:59N 33°41' W 118°59'0 0.0
2017-Oct-20 09:29N 33°41' W 118°59'0 0.0
2017-Oct-20 08:59N 33°41' W 118°59'0 0.0
2017-Oct-20 08:29N 33°41' W 118°59'0 0.0
2017-Oct-20 07:59N 33°41' W 118°59'0 0.1
2017-Oct-20 07:29N 33°41' W 118°59'0 0.0
2017-Oct-20 06:59N 33°41' W 118°59'0 0.0
2017-Oct-20 06:29N 33°41' W 118°59'0 0.0
2017-Oct-20 05:56N 33°41' W 118°59'0 0.0
2017-Oct-20 05:29N 33°41' W 118°59'0 0.0
2017-Oct-20 04:59N 33°41' W 118°59'0 0.0
2017-Oct-20 04:29N 33°41' W 118°59'0 0.0
2017-Oct-20 03:59N 33°41' W 118°59'0 0.0
2017-Oct-20 03:26N 33°41' W 118°59'0 0.0
2017-Oct-20 02:59N 33°41' W 118°59'0 0.0
2017-Oct-20 02:29N 33°41' W 118°59'0 0.0
2017-Oct-20 01:56N 33°41' W 118°59'0 0.0
2017-Oct-20 01:29N 33°41' W 118°59'0 0.0
2017-Oct-20 00:59N 33°41' W 118°59'0 0.0
2017-Oct-20 00:29N 33°41' W 118°59'0 0.0
2017-Oct-19 23:59N 33°41' W 118°59'0 0.0
2017-Oct-19 23:29N 33°41' W 118°59'0 0.0
2017-Oct-19 22:59N 33°41' W 118°59'0 0.0
2017-Oct-19 22:26N 33°41' W 118°59'0 0.0
2017-Oct-19 21:59N 33°41' W 118°59'0 0.0
2017-Oct-19 21:29N 33°41' W 118°59'0 0.0
2017-Oct-19 20:59N 33°41' W 118°59'0 0.0
2017-Oct-19 20:08N 33°41' W 118°59'0 0.0
2017-Oct-19 19:56N 33°41' W 118°59'0 0.0
2017-Oct-19 19:26N 33°41' W 118°59'0 0.0
2017-Oct-19 18:59N 33°41' W 118°59'0 0.0
2017-Oct-19 18:23N 33°41' W 118°59'0 0.1
2017-Oct-19 17:59N 33°41' W 118°59'0 0.0
2017-Oct-19 17:29N 33°41' W 118°59'0 0.0
2017-Oct-19 16:59N 33°41' W 118°59'0 0.1
2017-Oct-19 16:29N 33°41' W 118°59'0 0.1
2017-Oct-19 15:59N 33°41' W 118°59'0 0.1
2017-Oct-19 15:29N 33°41' W 118°59'0 0.0
2017-Oct-19 14:59N 33°41' W 118°59'0 0.0
2017-Oct-19 14:23N 33°41' W 118°59'0 0.0
2017-Oct-19 13:59N 33°41' W 118°59'0 0.0
2017-Oct-19 12:35N 33°41' W 118°59'0 0.0
2017-Oct-19 12:29N 33°41' W 118°59'0 0.0
2017-Oct-19 11:23N 33°41' W 118°59'0 0.0
2017-Oct-19 10:08N 33°41' W 118°59'0 0.0
2017-Oct-19 09:59N 33°41' W 118°59'0 0.0
2017-Oct-19 08:20N 33°41' W 118°59'0 0.0
2017-Oct-19 07:56N 33°41' W 118°59'0 0.0
2017-Oct-19 05:41N 33°41' W 118°59'0 0.2
2017-Oct-19 05:29N 33°41' W 118°59'0 0.0
2017-Oct-19 04:59N 33°41' W 118°59'0 0.0
2017-Oct-19 04:29N 33°41' W 118°59'0 0.0
2017-Oct-19 03:47N 33°41' W 118°59'0 0.2
2017-Oct-19 03:29N 33°41' W 118°59'0 0.0
2017-Oct-19 02:59N 33°41' W 118°59'0 0.0
2017-Oct-19 02:29N 33°41' W 118°59'0 0.0
2017-Oct-19 01:56N 33°41' W 118°59'0 0.0
2017-Oct-19 01:23N 33°41' W 118°59'0 0.0
2017-Oct-19 00:56N 33°41' W 118°59'0 0.0
2017-Oct-19 00:20N 33°41' W 118°59'0 0.0
2017-Oct-18 23:56N 33°41' W 118°59'0 0.0
2017-Oct-18 23:29N 33°41' W 118°59'0 0.0
2017-Oct-18 22:59N 33°41' W 118°59'0 0.0
2017-Oct-18 22:23N 33°41' W 118°59'0 0.0
2017-Oct-18 21:47N 33°41' W 118°59'0 0.0
2017-Oct-18 21:29N 33°41' W 118°59'0 0.0
2017-Oct-18 20:47N 33°41' W 118°59'0 0.0
2017-Oct-18 18:59N 33°41' W 118°59'0 0.0
2017-Oct-18 18:17N 33°41' W 118°59'0 0.0
2017-Oct-18 17:38N 33°41' W 118°59'  
Track history (hours):
 
Tides and Currents Weather Stations Pressure Air Temp Water Temp Dewpoint Dewpoint Depression Visibility Wind Speed Wind Dir Waves Ship Positions

Oceanographic research ship Flip (USA)

Detailed information on ship capabilities available from University of Delaware's Ocean Information Center.

Owner: REGENTS OF THE UNIVERSITY OF CALIFORNIA, OAKLAND, CA. More information available from US FCC via Universal Licensing System and Coast Guard Vessel Documentation Center.

Last reported at 2017-Oct-28 17:22 UTC. Time now 2017-Dec-18 09:17 UTC.
Position N 32°42' W 117°25'.
Warning: this ship's position is 50 days out of date.

Length 124 m; draft 14 m.

Type: Military. MMSI: 338040561.

Date/timePositionNaut miles runAvg speedWind from/ knotsBaromVisibWave heightAir tempDewpointWater temp
2017-Oct-28 17:22N 32°42' W 117°25'3 8.2
2017-Oct-28 17:00N 32°44' W 117°28'7 8.3
2017-Oct-28 16:08N 32°48' W 117°35'1 8.0
2017-Oct-28 16:00N 32°48' W 117°36'4 7.9
2017-Oct-28 15:30N 32°50' W 117°40'7 8.0
2017-Oct-28 14:36N 32°54' W 117°47'1 8.2
2017-Oct-28 14:30N 32°55' W 117°48'4 7.9
2017-Oct-28 14:00N 32°57' W 117°52'4 8.0
2017-Oct-28 13:30N 32°59' W 117°56'4 8.0
2017-Oct-28 13:00N 33°01' W 117°60'15 8.1
2017-Oct-28 11:10N 33°09' W 118°15'1 7.9
2017-Oct-28 11:00N 33°10' W 118°16'4 8.1
2017-Oct-28 10:30N 33°12' W 118°20'4 8.2
2017-Oct-28 10:00N 33°15' W 118°24'4 8.2
2017-Oct-28 09:30N 33°17' W 118°28'7 8.2
2017-Oct-28 08:37N 33°21' W 118°35'1 8.0
2017-Oct-28 08:30N 33°22' W 118°36'4 8.0
2017-Oct-28 08:00N 33°24' W 118°40'4 8.1
2017-Oct-28 07:30N 33°27' W 118°43'4 8.2
2017-Oct-28 06:59N 33°30' W 118°47'4 8.3
2017-Oct-28 06:30N 33°34' W 118°49'4 8.4
2017-Oct-28 06:00N 33°37' W 118°52'4 8.2
2017-Oct-28 05:30N 33°41' W 118°54'2 3.5
2017-Oct-28 05:00N 33°42' W 118°55'0 1.0
2017-Oct-28 04:30N 33°42' W 118°56'0 1.0
2017-Oct-28 04:00N 33°42' W 118°57'1 1.1
2017-Oct-28 03:30N 33°42' W 118°57'2 0.7
2017-Oct-28 00:28N 33°42' W 118°60'0 0.1
2017-Oct-27 23:49N 33°42' W 118°60'0 0.1
2017-Oct-27 23:25N 33°42' W 118°60'0 0.1
2017-Oct-27 22:58N 33°42' W 118°60'0 0.1
2017-Oct-27 22:19N 33°42' W 118°60'0 0.2
2017-Oct-27 21:58N 33°42' W 118°60'0 0.2
2017-Oct-27 21:25N 33°42' W 118°60'0 0.1
2017-Oct-27 16:46N 33°41' W 118°59'0 0.1
2017-Oct-27 14:54N 33°41' W 118°59'0 0.0
2017-Oct-27 14:30N 33°41' W 118°59'0 0.0
2017-Oct-27 13:18N 33°41' W 118°59'0 0.0
2017-Oct-27 12:54N 33°41' W 118°59'0 0.0
2017-Oct-27 12:30N 33°41' W 118°59'0 0.0
2017-Oct-27 11:48N 33°41' W 118°59'0 0.0
2017-Oct-27 10:33N 33°41' W 118°59'0 0.0
2017-Oct-27 10:09N 33°41' W 118°59'0 0.0
2017-Oct-27 08:54N 33°41' W 118°59'0 0.0
2017-Oct-27 05:57N 33°41' W 118°59'0 0.0
2017-Oct-27 05:15N 33°41' W 118°59'0 0.0
2017-Oct-27 04:54N 33°41' W 118°59'0 0.0
2017-Oct-27 03:30N 33°41' W 118°59'0 0.0
2017-Oct-26 23:23N 33°41' W 118°59'0 0.0
2017-Oct-26 21:56N 33°41' W 118°59'0 0.0
2017-Oct-26 20:02N 33°41' W 118°59'0 0.0
2017-Oct-26 15:26N 33°41' W 118°59'0 0.0
2017-Oct-26 13:44N 33°41' W 118°59'0 0.0
2017-Oct-26 12:17N 33°41' W 118°59'0 0.0
2017-Oct-26 11:44N 33°41' W 118°59'0 0.0
2017-Oct-26 09:50N 33°41' W 118°59'0 0.0
2017-Oct-26 09:23N 33°41' W 118°59'0 0.0
2017-Oct-26 08:56N 33°41' W 118°59'0 0.0
2017-Oct-26 08:29N 33°41' W 118°59'0 0.0
2017-Oct-26 07:20N 33°41' W 118°59'0 0.0
2017-Oct-26 03:38N 33°41' W 118°59'0 0.0
2017-Oct-26 03:17N 33°41' W 118°59'0 0.0
2017-Oct-26 02:53N 33°41' W 118°59'0 0.0
2017-Oct-26 02:26N 33°41' W 118°59'0 0.0
2017-Oct-26 01:59N 33°41' W 118°59'0 0.0
2017-Oct-26 01:26N 33°41' W 118°59'0 0.0
2017-Oct-25 23:56N 33°41' W 118°59'0 0.0
2017-Oct-25 23:29N 33°41' W 118°59'0 0.0
2017-Oct-25 22:59N 33°41' W 118°59'0 0.0
2017-Oct-25 22:26N 33°41' W 118°59'0 0.0
2017-Oct-25 21:56N 33°41' W 118°59'0 0.0
2017-Oct-25 21:29N 33°41' W 118°59'0 0.0
2017-Oct-25 20:59N 33°41' W 118°59'0 0.0
2017-Oct-25 20:26N 33°41' W 118°59'0 0.0
2017-Oct-25 19:59N 33°41' W 118°59'0 0.0
2017-Oct-25 19:29N 33°41' W 118°59'0 0.0
2017-Oct-25 18:56N 33°41' W 118°59'0 0.0
2017-Oct-25 18:26N 33°41' W 118°59'0 0.0
2017-Oct-25 17:59N 33°41' W 118°59'0 0.0
2017-Oct-25 17:26N 33°41' W 118°59'0 0.0
2017-Oct-25 16:59N 33°41' W 118°59'0 0.0
2017-Oct-25 16:26N 33°41' W 118°59'0 0.0
2017-Oct-25 15:59N 33°41' W 118°59'0 0.0
2017-Oct-25 15:29N 33°41' W 118°59'0 0.0
2017-Oct-25 14:59N 33°41' W 118°59'0 0.0
2017-Oct-25 14:29N 33°41' W 118°59'0 0.0
2017-Oct-25 13:59N 33°41' W 118°59'0 0.0
2017-Oct-25 13:29N 33°41' W 118°59'0 0.0
2017-Oct-25 12:59N 33°41' W 118°59'0 0.0
2017-Oct-25 12:29N 33°41' W 118°59'0 0.0
2017-Oct-25 11:59N 33°41' W 118°59'0 0.0
2017-Oct-25 11:29N 33°41' W 118°59'0 0.0
2017-Oct-25 10:35N 33°41' W 118°59'0 0.0
2017-Oct-25 10:29N 33°41' W 118°59'0 0.0
2017-Oct-25 09:01N 33°41' W 118°59'0 0.1
2017-Oct-25 08:59N 33°41' W 118°59'0 0.0
2017-Oct-25 08:25N 33°41' W 118°59'0 0.0
2017-Oct-25 07:59N 33°41' W 118°59'0 0.0
2017-Oct-25 07:29N 33°41' W 118°59'0 0.0
2017-Oct-25 06:53N 33°41' W 118°59'0 0.0
2017-Oct-25 06:29N 33°41' W 118°59'0 0.0
2017-Oct-25 05:59N 33°41' W 118°59'0 0.0
2017-Oct-25 05:28N 33°41' W 118°59'0 0.0
2017-Oct-25 04:58N 33°41' W 118°59'0 0.0
2017-Oct-25 04:29N 33°41' W 118°59'0 0.0
2017-Oct-25 03:47N 33°41' W 118°59'0 0.0
2017-Oct-25 03:29N 33°41' W 118°59'0 0.0
2017-Oct-25 02:58N 33°41' W 118°59'0 0.0
2017-Oct-25 02:29N 33°41' W 118°59'0 0.0
2017-Oct-25 01:55N 33°41' W 118°59'0 0.0
2017-Oct-25 01:22N 33°41' W 118°59'0 0.0
2017-Oct-25 00:58N 33°41' W 118°59'0 0.0
2017-Oct-25 00:28N 33°41' W 118°59'0 0.0
2017-Oct-24 23:50N 33°41' W 118°59'0 0.0
2017-Oct-24 23:28N 33°41' W 118°59'0 0.0
2017-Oct-24 22:49N 33°41' W 118°59'0 0.0
2017-Oct-24 22:29N 33°41' W 118°59'0 0.0
2017-Oct-24 21:52N 33°41' W 118°59'0 0.0
2017-Oct-24 21:28N 33°41' W 118°59'0 0.0
2017-Oct-24 20:59N 33°41' W 118°59'0 0.0
2017-Oct-24 20:29N 33°41' W 118°59'0 0.0
2017-Oct-24 19:59N 33°41' W 118°59'0 0.0
2017-Oct-24 19:23N 33°41' W 118°59'0 0.0
2017-Oct-24 18:59N 33°41' W 118°59'0 0.0
2017-Oct-24 18:17N 33°41' W 118°59'0 0.0
2017-Oct-24 17:55N 33°41' W 118°59'0 0.0
2017-Oct-24 16:58N 33°41' W 118°59'0 0.0
2017-Oct-24 16:25N 33°41' W 118°59'0 0.0
2017-Oct-24 15:55N 33°41' W 118°59'0 0.0
2017-Oct-24 15:25N 33°41' W 118°59'0 0.0
2017-Oct-24 14:56N 33°41' W 118°59'0 0.0
2017-Oct-24 14:25N 33°41' W 118°59'0 0.0
2017-Oct-24 13:52N 33°41' W 118°59'0 0.0
2017-Oct-24 13:26N 33°41' W 118°59'0 0.0
2017-Oct-24 12:55N 33°41' W 118°59'0 0.0
2017-Oct-24 12:25N 33°41' W 118°59'0 0.0
2017-Oct-24 11:55N 33°41' W 118°59'0 0.0
2017-Oct-24 11:25N 33°41' W 118°59'0 0.0
2017-Oct-24 08:58N 33°41' W 118°59'0 0.0
2017-Oct-24 08:28N 33°41' W 118°59'0 0.0
2017-Oct-24 06:52N 33°41' W 118°59'0 0.0
2017-Oct-24 06:25N 33°41' W 118°59'0 0.0
2017-Oct-24 04:04N 33°41' W 118°59'0 0.0
2017-Oct-24 03:55N 33°41' W 118°59'0 0.0
2017-Oct-24 03:25N 33°41' W 118°59'0 0.0
2017-Oct-24 02:58N 33°41' W 118°59'0 0.0
2017-Oct-23 23:16N 33°41' W 118°59'0 0.0
2017-Oct-23 22:58N 33°41' W 118°59'0 0.0
2017-Oct-23 17:01N 33°41' W 118°59'0 0.0
2017-Oct-23 16:31N 33°41' W 118°59'0 0.0
2017-Oct-23 16:22N 33°41' W 118°59'0 0.0
2017-Oct-23 15:46N 33°41' W 118°59'0 0.0
2017-Oct-23 15:07N 33°41' W 118°59'0 0.0
2017-Oct-23 14:52N 33°41' W 118°59'0 0.0
2017-Oct-23 14:28N 33°41' W 118°59'0 0.0
2017-Oct-23 13:58N 33°41' W 118°59'0 0.0
2017-Oct-23 12:52N 33°41' W 118°59'0 0.0
2017-Oct-23 12:07N 33°41' W 118°59'0 0.0
2017-Oct-23 11:58N 33°41' W 118°59'0 0.0
2017-Oct-23 11:04N 33°41' W 118°59'0 0.0
2017-Oct-23 10:58N 33°41' W 118°59'0 0.0
2017-Oct-23 10:25N 33°41' W 118°59'0 0.0
2017-Oct-23 09:16N 33°41' W 118°59'0 0.0
2017-Oct-23 05:58N 33°41' W 118°59'0 0.0
2017-Oct-23 05:19N 33°41' W 118°59'0 0.0
2017-Oct-23 04:49N 33°41' W 118°59'0 0.1
2017-Oct-23 04:25N 33°41' W 118°59'0 0.0
2017-Oct-22 20:19N 33°41' W 118°59'0 0.0
2017-Oct-22 19:55N 33°41' W 118°59'0 0.0
2017-Oct-22 19:28N 33°41' W 118°59'0 0.0
2017-Oct-22 18:58N 33°41' W 118°59'0 0.0
2017-Oct-22 18:28N 33°41' W 118°59'0 0.0
2017-Oct-22 17:52N 33°41' W 118°59'0 0.0
2017-Oct-22 17:22N 33°41' W 118°59'0 0.0
2017-Oct-22 16:58N 33°41' W 118°59'0 0.0
2017-Oct-22 15:46N 33°41' W 118°59'0 0.1
2017-Oct-22 15:22N 33°41' W 118°59'0 0.0
2017-Oct-22 14:58N 33°41' W 118°59'0 0.0
2017-Oct-22 14:25N 33°41' W 118°59'0 0.0
2017-Oct-22 13:58N 33°41' W 118°59'0 0.0
2017-Oct-22 13:25N 33°41' W 118°59'0 0.0
2017-Oct-22 12:46N 33°41' W 118°59'0 0.0
2017-Oct-22 12:28N 33°41' W 118°59'0 0.0
2017-Oct-22 11:58N 33°41' W 118°59'0 0.0
2017-Oct-22 07:46N 33°41' W 118°59'0 0.0
2017-Oct-22 04:04N 33°41' W 118°59'0 0.1
2017-Oct-22 03:43N 33°41' W 118°59'0 0.0
2017-Oct-21 23:16N 33°41' W 118°59'0 0.0
2017-Oct-21 22:58N 33°41' W 118°59'0 0.0
2017-Oct-21 22:22N 33°41' W 118°59'0 0.0
2017-Oct-21 21:58N 33°41' W 118°59'0 0.0
2017-Oct-21 21:28N 33°41' W 118°59'0 0.0
2017-Oct-21 20:58N 33°41' W 118°59'0 0.0
2017-Oct-21 20:25N 33°41' W 118°59'0 0.0
2017-Oct-21 19:58N 33°41' W 118°59'0 0.1
2017-Oct-21 19:28N 33°41' W 118°59'0 0.0
2017-Oct-21 12:31N 33°41' W 118°59'0 0.0
2017-Oct-21 12:19N 33°41' W 118°59'0 0.0
2017-Oct-21 11:37N 33°41' W 118°59'0 0.0
2017-Oct-21 11:22N 33°41' W 118°59'0 0.0
2017-Oct-21 09:40N 33°41' W 118°59'0 0.0
2017-Oct-21 09:28N 33°41' W 118°59'0 0.0
2017-Oct-21 08:55N 33°41' W 118°59'0 0.0
2017-Oct-21 08:19N 33°41' W 118°59'0 0.0
2017-Oct-21 05:19N 33°41' W 118°59'0 0.0
2017-Oct-21 04:37N 33°41' W 118°59'0 0.0
2017-Oct-21 04:16N 33°41' W 118°59'0 0.0
2017-Oct-21 03:58N 33°41' W 118°59'0 0.0
2017-Oct-21 03:22N 33°41' W 118°59'0 0.0
2017-Oct-21 02:58N 33°41' W 118°59'0 0.0
2017-Oct-21 01:52N 33°41' W 118°59'0 0.1
2017-Oct-21 01:28N 33°41' W 118°59'0 0.0
2017-Oct-21 00:34N 33°41' W 118°59'0 0.0
2017-Oct-21 00:04N 33°41' W 118°59'0 0.1
2017-Oct-20 23:55N 33°41' W 118°59'0 0.0
2017-Oct-20 23:25N 33°41' W 118°59'0 0.0
2017-Oct-20 22:52N 33°41' W 118°59'0 0.0
2017-Oct-20 22:28N 33°41' W 118°59'0 0.0
2017-Oct-20 21:58N 33°41' W 118°59'0 0.0
2017-Oct-20 21:28N 33°41' W 118°59'0 0.0
2017-Oct-20 20:58N 33°41' W 118°59'0 0.0
2017-Oct-20 15:40N 33°41' W 118°59'0 0.0
2017-Oct-20 15:28N 33°41' W 118°59'0 0.0
2017-Oct-20 14:55N 33°41' W 118°59'0 0.1
2017-Oct-20 14:19N 33°41' W 118°59'0 0.0
2017-Oct-20 13:28N 33°41' W 118°59'0 0.0
2017-Oct-20 12:55N 33°41' W 118°59'0 0.0
2017-Oct-20 12:29N 33°41' W 118°59'0 0.0
2017-Oct-20 11:59N 33°41' W 118°59'0 0.0
2017-Oct-20 11:29N 33°41' W 118°59'0 0.0
2017-Oct-20 10:59N 33°41' W 118°59'0 0.0
2017-Oct-20 10:29N 33°41' W 118°59'0 0.0
2017-Oct-20 09:59N 33°41' W 118°59'0 0.0
2017-Oct-20 09:29N 33°41' W 118°59'0 0.0
2017-Oct-20 08:59N 33°41' W 118°59'0 0.0
2017-Oct-20 08:29N 33°41' W 118°59'0 0.0
2017-Oct-20 07:59N 33°41' W 118°59'0 0.1
2017-Oct-20 07:29N 33°41' W 118°59'0 0.0
2017-Oct-20 06:59N 33°41' W 118°59'0 0.0
2017-Oct-20 06:29N 33°41' W 118°59'0 0.0
2017-Oct-20 05:56N 33°41' W 118°59'0 0.0
2017-Oct-20 05:29N 33°41' W 118°59'0 0.0
2017-Oct-20 04:59N 33°41' W 118°59'0 0.0
2017-Oct-20 04:29N 33°41' W 118°59'0 0.0
2017-Oct-20 03:59N 33°41' W 118°59'0 0.0
2017-Oct-20 03:26N 33°41' W 118°59'0 0.0
2017-Oct-20 02:59N 33°41' W 118°59'0 0.0
2017-Oct-20 02:29N 33°41' W 118°59'0 0.0
2017-Oct-20 01:56N 33°41' W 118°59'0 0.0
2017-Oct-20 01:29N 33°41' W 118°59'0 0.0
2017-Oct-20 00:59N 33°41' W 118°59'0 0.0
2017-Oct-20 00:29N 33°41' W 118°59'0 0.0
2017-Oct-19 23:59N 33°41' W 118°59'0 0.0
2017-Oct-19 23:29N 33°41' W 118°59'0 0.0
2017-Oct-19 22:59N 33°41' W 118°59'0 0.0
2017-Oct-19 22:26N 33°41' W 118°59'0 0.0
2017-Oct-19 21:59N 33°41' W 118°59'0 0.0
2017-Oct-19 21:29N 33°41' W 118°59'0 0.0
2017-Oct-19 20:59N 33°41' W 118°59'0 0.0
2017-Oct-19 20:08N 33°41' W 118°59'0 0.0
2017-Oct-19 19:56N 33°41' W 118°59'0 0.0
2017-Oct-19 19:26N 33°41' W 118°59'0 0.0
2017-Oct-19 18:59N 33°41' W 118°59'0 0.0
2017-Oct-19 18:23N 33°41' W 118°59'0 0.1
2017-Oct-19 17:59N 33°41' W 118°59'0 0.0
2017-Oct-19 17:29N 33°41' W 118°59'0 0.0
2017-Oct-19 16:59N 33°41' W 118°59'0 0.1
2017-Oct-19 16:29N 33°41' W 118°59'0 0.1
2017-Oct-19 15:59N 33°41' W 118°59'0 0.1
2017-Oct-19 15:29N 33°41' W 118°59'0 0.0
2017-Oct-19 14:59N 33°41' W 118°59'0 0.0
2017-Oct-19 14:23N 33°41' W 118°59'0 0.0
2017-Oct-19 13:59N 33°41' W 118°59'0 0.0
2017-Oct-19 12:35N 33°41' W 118°59'0 0.0
2017-Oct-19 12:29N 33°41' W 118°59'0 0.0
2017-Oct-19 11:23N 33°41' W 118°59'0 0.0
2017-Oct-19 10:08N 33°41' W 118°59'0 0.0
2017-Oct-19 09:59N 33°41' W 118°59'0 0.0
2017-Oct-19 08:20N 33°41' W 118°59'0 0.0
2017-Oct-19 07:56N 33°41' W 118°59'0 0.0
2017-Oct-19 05:41N 33°41' W 118°59'0 0.2
2017-Oct-19 05:29N 33°41' W 118°59'0 0.0
2017-Oct-19 04:59N 33°41' W 118°59'0 0.0
2017-Oct-19 04:29N 33°41' W 118°59'0 0.0
2017-Oct-19 03:47N 33°41' W 118°59'0 0.2
2017-Oct-19 03:29N 33°41' W 118°59'0 0.0
2017-Oct-19 02:59N 33°41' W 118°59'0 0.0
2017-Oct-19 02:29N 33°41' W 118°59'0 0.0
2017-Oct-19 01:56N 33°41' W 118°59'0 0.0
2017-Oct-19 01:23N 33°41' W 118°59'0 0.0
2017-Oct-19 00:56N 33°41' W 118°59'0 0.0
2017-Oct-19 00:20N 33°41' W 118°59'0 0.0
2017-Oct-18 23:56N 33°41' W 118°59'0 0.0
2017-Oct-18 23:29N 33°41' W 118°59'0 0.0
2017-Oct-18 22:59N 33°41' W 118°59'0 0.0
2017-Oct-18 22:23N 33°41' W 118°59'0 0.0
2017-Oct-18 21:47N 33°41' W 118°59'0 0.0
2017-Oct-18 21:29N 33°41' W 118°59'0 0.0
2017-Oct-18 20:47N 33°41' W 118°59'0 0.0
2017-Oct-18 18:59N 33°41' W 118°59'0 0.0
2017-Oct-18 18:17N 33°41' W 118°59'0 0.0
2017-Oct-18 17:38N 33°41' W 118°59'  

Dump ship's entire track history